Time;durP1;ratioP1;P1;durP2;ratioP2;P2;SDS_P1;SDS_P2;PMS_P1;PMS_P2;Temp;Humidity;BMP_temperature;BMP_pressure;BME280_temperature;BME280_humidity;BME280_pressure;Samples;Min_cycle;Max_cycle;Signal;HPM_P1;HPM_P2
2024/01/08 00:00:58;;;;;;;6.22;5.57;;;;;;;-2.63;81.84;102912.34;5078809;28;20135;-70
2024/01/08 00:03:26;;;;;;;6.63;4.20;;;;;;;-2.62;81.04;102908.97;5073051;28;20523;-70
2024/01/08 00:05:53;;;;;;;5.80;5.20;;;;;;;-2.66;81.51;102906.25;5075062;28;20075;-70
2024/01/08 00:08:20;;;;;;;4.97;3.72;;;;;;;-2.69;81.58;102910.31;5075835;28;20040;-71
2024/01/08 00:10:47;;;;;;;4.97;3.38;;;;;;;-2.68;81.35;102915.59;5075648;28;20044;-71
2024/01/08 00:13:15;;;;;;;3.90;3.10;;;;;;;-2.71;81.11;102920.56;5076375;28;20051;-71
2024/01/08 00:15:42;;;;;;;3.92;2.58;;;;;;;-2.77;82.11;102912.47;5086042;28;20037;-71
2024/01/08 00:18:09;;;;;;;6.20;5.60;;;;;;;-2.77;82.57;102912.47;5071614;28;20041;-71
2024/01/08 00:20:36;;;;;;;6.97;6.38;;;;;;;-2.71;81.95;102915.41;5074155;28;20044;-71
2024/01/08 00:23:04;;;;;;;4.82;3.88;;;;;;;-2.71;81.56;102909.34;5096234;28;20072;-71
2024/01/08 00:25:31;;;;;;;6.82;4.38;;;;;;;-2.77;81.51;102907.31;5075190;28;20040;-71
2024/01/08 00:27:58;;;;;;;4.78;3.40;;;;;;;-2.83;82.13;102910.44;5080782;28;20063;-71
2024/01/08 00:30:25;;;;;;;6.63;5.93;;;;;;;-2.82;81.92;102907.03;5084177;28;20036;-71
2024/01/08 00:32:53;;;;;;;4.05;3.20;;;;;;;-2.81;81.44;102903.66;5068904;28;21898;-71
2024/01/08 00:35:20;;;;;;;6.32;2.75;;;;;;;-2.79;81.33;102902.84;5069892;28;20522;-71
2024/01/08 00:37:48;;;;;;;4.40;3.15;;;;;;;-2.79;81.51;102902.84;5079145;28;20109;-70
2024/01/08 00:40:15;;;;;;;5.28;2.85;;;;;;;-2.83;81.85;102892.34;5089207;28;20040;-70
2024/01/08 00:42:42;;;;;;;2.55;2.03;;;;;;;-2.82;81.87;102895.81;5089358;28;20071;-70
2024/01/08 00:45:09;;;;;;;6.55;5.07;;;;;;;-2.79;81.41;102901.16;5073467;28;20067;-70
2024/01/08 00:47:36;;;;;;;5.25;2.78;;;;;;;-2.81;81.57;102903.66;5078853;28;20039;-70
2024/01/08 00:50:05;;;;;;;5.13;2.88;;;;;;;-2.79;81.70;102895.09;5071709;28;20076;-70
2024/01/08 00:52:32;;;;;;;5.50;4.93;;;;;;;-2.83;81.96;102901.78;5074505;28;20122;-70
2024/01/08 00:55:04;;;;;;;4.35;2.92;;;;;;;-2.87;82.05;102902.41;5072238;28;20407;-71
2024/01/08 00:57:33;;;;;;;3.97;2.55;;;;;;;-2.91;81.86;102903.94;5086809;28;20043;-70
2024/01/08 01:00:02;;;;;;;5.18;3.28;;;;;;;-2.94;81.89;102900.25;5071217;28;20131;-71
2024/01/08 01:02:29;;;;;;;5.75;5.10;;;;;;;-2.99;82.28;102900.91;5090733;28;20048;-71
2024/01/08 01:04:57;;;;;;;4.07;2.63;;;;;;;-3.02;82.23;102900.69;5089659;28;20564;-71
2024/01/08 01:07:27;;;;;;;4.88;2.88;;;;;;;-3.07;82.34;102903.81;5090813;28;20515;-71
2024/01/08 01:09:55;;;;;;;6.43;5.55;;;;;;;-3.10;82.84;102907.09;5085485;28;20135;-70
2024/01/08 01:12:22;;;;;;;5.43;3.30;;;;;;;-3.13;83.04;102907.81;5084616;28;20048;-70
2024/01/08 01:14:49;;;;;;;6.18;2.58;;;;;;;-3.15;83.43;102917.16;5086934;28;20044;-70
2024/01/08 01:17:19;;;;;;;5.53;3.97;;;;;;;-3.14;83.57;102928.34;5073489;28;20044;-71
2024/01/08 01:19:46;;;;;;;10.43;8.55;;;;;;;-3.11;83.56;102920.81;5084153;28;20071;-71
2024/01/08 01:22:13;;;;;;;8.98;5.10;;;;;;;-3.14;83.76;102926.69;5087623;28;20575;-70
2024/01/08 01:24:41;;;;;;;10.43;9.30;;;;;;;-3.16;83.69;102933.44;5071493;28;20530;-70
2024/01/08 01:27:08;;;;;;;10.95;9.73;;;;;;;-3.12;83.67;102935.41;5082624;28;20397;-71
2024/01/08 01:29:35;;;;;;;6.57;5.10;;;;;;;-3.14;83.51;102942.16;5070747;28;20450;-71
2024/01/08 01:32:04;;;;;;;7.43;5.32;;;;;;;-3.20;83.75;102941.78;5070057;28;20139;-70
2024/01/08 01:34:32;;;;;;;5.32;3.78;;;;;;;-3.21;84.07;102940.03;5083395;28;20080;-71
2024/01/08 01:36:59;;;;;;;5.80;3.90;;;;;;;-3.25;84.18;102931.97;5072659;28;20063;-70
2024/01/08 01:39:26;;;;;;;7.57;6.75;;;;;;;-3.25;83.64;102940.63;5076531;28;20396;-71
2024/01/08 01:41:53;;;;;;;4.82;3.13;;;;;;;-3.33;83.92;102939.28;5069698;28;20054;-71
2024/01/08 01:44:21;;;;;;;4.90;3.15;;;;;;;-3.41;84.32;102937.94;5085968;28;20617;-71
2024/01/08 01:46:51;;;;;;;5.40;3.50;;;;;;;-3.47;84.69;102933.28;5086682;28;20512;-71
2024/01/08 01:49:21;;;;;;;6.68;3.50;;;;;;;-3.49;84.91;102928.03;5068919;28;20037;-71
2024/01/08 01:51:51;;;;;;;5.95;3.60;;;;;;;-3.52;84.90;102935.59;5068822;28;20046;-71
2024/01/08 01:54:23;;;;;;;6.35;3.58;;;;;;;-3.55;85.07;102940.53;5085511;28;20049;-70
2024/01/08 01:57:03;;;;;;;4.50;3.22;;;;;;;-3.57;85.25;102939.56;5073573;28;20040;-70
2024/01/08 01:59:33;;;;;;;4.45;2.58;;;;;;;-3.66;85.78;102937.28;5078242;28;20499;-71
2024/01/08 02:02:02;;;;;;;5.03;2.90;;;;;;;-3.65;85.93;102933.03;5085534;28;20091;-70
2024/01/08 02:04:30;;;;;;;3.95;2.70;;;;;;;-3.65;85.89;102948.50;5069405;28;20412;-71
2024/01/08 02:07:00;;;;;;;6.28;5.38;;;;;;;-3.64;85.88;102945.16;5069220;28;20556;-70
2024/01/08 02:09:29;;;;;;;4.82;2.70;;;;;;;-3.67;86.24;102937.22;5079977;28;20076;-70
2024/01/08 02:11:56;;;;;;;4.60;2.60;;;;;;;-3.75;86.56;102924.75;5086601;28;20135;-70
2024/01/08 02:14:23;;;;;;;6.43;5.13;;;;;;;-3.76;86.86;102941.00;5081878;28;20052;-70
2024/01/08 02:16:51;;;;;;;6.07;5.30;;;;;;;-3.78;87.22;102942.59;5084647;28;20087;-70
2024/01/08 02:19:18;;;;;;;6.60;3.17;;;;;;;-3.81;87.34;102936.34;5085100;28;20221;-70
2024/01/08 02:21:46;;;;;;;9.45;3.25;;;;;;;-3.86;87.76;102945.47;5083913;28;20044;-71
2024/01/08 02:24:13;;;;;;;7.20;3.65;;;;;;;-3.88;88.13;102949.66;5069750;28;20550;-71
2024/01/08 02:26:40;;;;;;;6.10;3.13;;;;;;;-3.86;88.13;102943.81;5088926;28;20044;-71
2024/01/08 02:29:09;;;;;;;4.65;2.72;;;;;;;-3.83;88.09;102936.28;5072998;28;20661;-71
2024/01/08 02:31:36;;;;;;;5.47;2.97;;;;;;;-3.86;88.51;102937.72;5075113;28;20040;-71
2024/01/08 02:34:04;;;;;;;2.38;1.92;;;;;;;-3.85;88.76;102947.25;5088614;28;20066;-71
2024/01/08 02:36:31;;;;;;;5.65;3.28;;;;;;;-3.82;89.01;102945.78;5083880;28;20072;-70
2024/01/08 02:38:58;;;;;;;7.40;5.82;;;;;;;-3.77;88.98;102941.78;5074038;28;20055;-71
2024/01/08 02:41:25;;;;;;;6.38;3.13;;;;;;;-3.73;89.04;102945.44;5096183;28;20447;-71
2024/01/08 02:43:53;;;;;;;6.55;3.58;;;;;;;-3.74;89.29;102951.41;5077047;28;20052;-71
2024/01/08 02:46:20;;;;;;;5.53;3.17;;;;;;;-3.66;89.46;102950.19;5067126;28;20076;-71
2024/01/08 02:48:47;;;;;;;7.38;2.58;;;;;;;-3.64;89.37;102945.16;5072911;28;20046;-71
2024/01/08 02:51:15;;;;;;;4.60;2.78;;;;;;;-3.62;89.55;102944.44;5086185;28;20491;-71
2024/01/08 02:53:42;;;;;;;5.20;3.05;;;;;;;-3.57;89.40;102947.28;5081628;28;20679;-71
2024/01/08 02:56:22;;;;;;;5.45;2.83;;;;;;;-3.55;89.22;102944.78;5068626;28;20554;-71
2024/01/08 02:58:49;;;;;;;4.65;2.83;;;;;;;-3.54;89.37;102947.50;5081470;28;20040;-72
2024/01/08 03:01:17;;;;;;;5.15;3.08;;;;;;;-3.50;89.25;102952.03;5075087;28;20044;-72
2024/01/08 03:03:44;;;;;;;4.78;2.72;;;;;;;-3.49;89.15;102945.19;5068926;28;20532;-72
2024/01/08 03:06:11;;;;;;;7.07;3.22;;;;;;;-3.46;88.96;102953.13;5072273;28;20359;-72
2024/01/08 03:08:38;;;;;;;5.47;3.03;;;;;;;-3.44;88.66;102951.50;5084168;28;20121;-71
2024/01/08 03:11:06;;;;;;;4.78;3.05;;;;;;;-3.45;88.91;102953.22;5067165;28;20050;-71
2024/01/08 03:13:34;;;;;;;4.55;2.55;;;;;;;-3.44;88.64;102955.00;5077763;28;20117;-70
2024/01/08 03:16:01;;;;;;;5.32;2.80;;;;;;;-3.42;88.85;102955.09;5077215;28;20036;-71
2024/01/08 03:18:28;;;;;;;4.95;2.63;;;;;;;-3.37;88.78;102958.84;5078492;28;20267;-70
2024/01/08 03:20:55;;;;;;;8.32;6.40;;;;;;;-3.35;88.59;102951.19;5086129;28;20101;-70
2024/01/08 03:23:22;;;;;;;6.05;3.83;;;;;;;-3.35;88.57;102954.66;5082296;28;20121;-70
2024/01/08 03:25:49;;;;;;;3.83;2.75;;;;;;;-3.35;88.72;102953.78;5086955;28;20503;-71
2024/01/08 03:28:17;;;;;;;6.10;3.35;;;;;;;-3.30;88.63;102949.75;5084803;28;20048;-70
2024/01/08 03:30:44;;;;;;;4.78;2.58;;;;;;;-3.30;88.44;102952.34;5073204;28;20462;-70
2024/01/08 03:33:12;;;;;;;5.85;3.03;;;;;;;-3.30;88.76;102950.69;5082085;28;20060;-70
2024/01/08 03:35:39;;;;;;;6.03;3.60;;;;;;;-3.25;88.71;102950.03;5066852;28;20097;-70
2024/01/08 03:38:06;;;;;;;8.18;3.67;;;;;;;-3.25;88.72;102950.03;5091294;28;20056;-70
2024/01/08 03:40:34;;;;;;;6.45;3.53;;;;;;;-3.23;88.23;102956.19;5088203;28;20044;-71
2024/01/08 03:43:01;;;;;;;3.85;2.42;;;;;;;-3.22;88.34;102947.66;5087000;28;20040;-71
2024/01/08 03:45:29;;;;;;;7.40;3.45;;;;;;;-3.25;88.76;102943.22;5073282;28;20036;-71
2024/01/08 03:47:56;;;;;;;5.88;3.33;;;;;;;-3.22;88.79;102945.97;5072780;28;20032;-71
2024/01/08 03:50:23;;;;;;;4.15;2.42;;;;;;;-3.19;88.59;102945.28;5069889;28;20087;-71
2024/01/08 03:52:51;;;;;;;3.75;2.30;;;;;;;-3.19;88.40;102947.84;5072747;28;20036;-70
2024/01/08 03:55:18;;;;;;;4.88;3.22;;;;;;;-3.20;88.40;102939.19;5083731;28;20127;-71
2024/01/08 03:57:45;;;;;;;6.85;3.00;;;;;;;-3.16;88.23;102956.66;5083959;28;20062;-71
2024/01/08 04:00:13;;;;;;;6.90;2.85;;;;;;;-3.15;88.22;102953.28;5083983;28;20121;-71
2024/01/08 04:02:40;;;;;;;5.53;2.58;;;;;;;-3.17;88.34;102939.41;5078594;28;20041;-71
2024/01/08 04:05:11;;;;;;;5.55;3.15;;;;;;;-3.17;88.66;102956.59;5076608;28;20140;-71
2024/01/08 04:07:39;;;;;;;5.53;2.67;;;;;;;-3.10;87.91;102953.56;5086699;28;20123;-72
2024/01/08 04:10:07;;;;;;;4.85;3.05;;;;;;;-3.10;87.99;102956.16;5088306;28;20040;-71
2024/01/08 04:12:34;;;;;;;6.32;3.75;;;;;;;-3.08;87.69;102951.06;5085221;28;20663;-72
2024/01/08 04:15:02;;;;;;;6.43;3.40;;;;;;;-3.09;88.10;102950.19;5070016;28;20139;-72
2024/01/08 04:17:29;;;;;;;5.68;3.65;;;;;;;-3.09;87.88;102954.44;5074065;28;20038;-71
2024/01/08 04:19:56;;;;;;;5.43;2.88;;;;;;;-3.11;88.14;102951.78;5082321;28;20068;-72
2024/01/08 04:22:23;;;;;;;7.07;3.55;;;;;;;-3.06;88.14;102962.38;5069929;28;20040;-71
2024/01/08 04:24:51;;;;;;;7.13;5.68;;;;;;;-3.07;88.16;102952.84;5085929;28;20366;-71
2024/01/08 04:27:18;;;;;;;10.60;3.40;;;;;;;-3.13;88.61;102959.44;5076023;28;20161;-71
2024/01/08 04:29:45;;;;;;;5.30;2.95;;;;;;;-3.11;88.91;102959.53;5072159;28;20036;-70
2024/01/08 04:32:12;;;;;;;4.53;2.90;;;;;;;-3.12;89.25;102956.06;5073805;28;20072;-71
2024/01/08 04:34:39;;;;;;;6.75;3.63;;;;;;;-3.13;89.50;102955.94;5067653;28;20075;-71
2024/01/08 04:37:06;;;;;;;4.90;2.47;;;;;;;-3.11;89.82;102962.09;5078336;28;20045;-70
2024/01/08 04:39:33;;;;;;;6.05;4.13;;;;;;;-3.08;89.91;102958.81;5077525;28;20067;-71
2024/01/08 04:42:00;;;;;;;9.00;6.35;;;;;;;-3.03;89.92;102960.00;5087630;28;20124;-71
2024/01/08 04:44:27;;;;;;;6.65;3.58;;;;;;;-3.06;90.20;102952.06;5066699;28;20068;-71
2024/01/08 04:46:54;;;;;;;3.05;2.08;;;;;;;-3.10;90.73;102955.25;5072644;28;20114;-70
2024/01/08 04:49:22;;;;;;;7.18;2.72;;;;;;;-3.09;90.92;102945.03;5079553;28;20048;-70
2024/01/08 04:51:50;;;;;;;6.95;3.58;;;;;;;-3.10;91.04;102948.41;5084721;28;20051;-70
2024/01/08 04:54:17;;;;;;;5.35;2.90;;;;;;;-3.07;91.27;102946.00;5072601;28;20131;-70
2024/01/08 04:56:45;;;;;;;6.30;3.70;;;;;;;-3.04;91.20;102950.47;5090824;28;20127;-71
2024/01/08 04:59:12;;;;;;;6.68;3.67;;;;;;;-3.06;91.51;102941.72;5084552;28;20043;-71
2024/01/08 05:01:40;;;;;;;3.72;2.05;;;;;;;-3.04;91.85;102945.28;5090190;28;20098;-71
2024/01/08 05:04:07;;;;;;;5.57;2.72;;;;;;;-3.01;91.63;102945.50;5084449;28;20064;-71
2024/01/08 05:06:38;;;;;;;3.95;2.95;;;;;;;-3.03;91.96;102942.78;5073934;28;20113;-71
2024/01/08 05:09:06;;;;;;;8.75;4.15;;;;;;;-3.02;92.23;102938.53;5096431;28;20067;-71
2024/01/08 05:11:33;;;;;;;9.07;6.72;;;;;;;-2.99;92.20;102943.88;5074481;28;20159;-71
2024/01/08 05:14:00;;;;;;;6.47;3.90;;;;;;;-2.96;92.14;102951.81;5080243;28;20063;-71
2024/01/08 05:16:27;;;;;;;6.40;3.58;;;;;;;-2.95;92.13;102948.41;5075147;28;20115;-71
2024/01/08 05:18:54;;;;;;;11.20;7.00;;;;;;;-2.93;92.23;102944.25;5086528;28;20036;-71
2024/01/08 05:21:21;;;;;;;7.78;4.32;;;;;;;-2.97;92.43;102945.75;5078071;28;20066;-72
2024/01/08 05:23:49;;;;;;;9.65;7.38;;;;;;;-2.98;92.96;102948.22;5079816;28;20135;-70
2024/01/08 05:26:18;;;;;;;8.18;4.15;;;;;;;-2.90;92.57;102946.97;5068929;28;20122;-70
2024/01/08 05:28:46;;;;;;;7.78;3.70;;;;;;;-2.94;92.68;102947.63;5087333;28;20047;-70
2024/01/08 05:31:13;;;;;;;10.77;7.68;;;;;;;-2.91;92.94;102940.06;5086236;28;20044;-71
2024/01/08 05:33:40;;;;;;;5.43;3.80;;;;;;;-2.89;93.86;102941.03;5091660;28;20072;-70
2024/01/08 05:36:07;;;;;;;7.80;3.67;;;;;;;-2.73;94.61;102942.81;5078335;28;20142;-70
2024/01/08 05:38:38;;;;;;;6.00;3.53;;;;;;;-2.63;95.14;102933.00;5076812;28;20147;-70
2024/01/08 05:41:05;;;;;;;10.52;7.45;;;;;;;-2.48;95.80;102939.09;5079354;28;20036;-69
2024/01/08 05:43:37;;;;;;;10.30;8.23;;;;;;;-2.35;96.16;102938.97;5079352;28;20048;-70
2024/01/08 05:46:06;;;;;;;9.85;7.68;;;;;;;-2.32;93.95;102937.34;5082086;28;20162;-69
2024/01/08 05:48:39;;;;;;;5.53;3.85;;;;;;;-2.43;92.96;102941.91;5082141;28;20503;-69
2024/01/08 05:51:07;;;;;;;5.30;3.28;;;;;;;-2.50;92.56;102940.69;5076411;28;20040;-70
2024/01/08 05:53:35;;;;;;;9.82;4.68;;;;;;;-2.63;93.29;102941.66;5077820;28;20043;-70
2024/01/08 05:56:03;;;;;;;7.72;4.32;;;;;;;-2.64;93.71;102937.31;5073643;28;20082;-70
2024/01/08 05:58:32;;;;;;;11.40;4.72;;;;;;;-2.59;93.74;102943.63;5081095;28;20569;-69
2024/01/08 06:01:00;;;;;;;7.22;4.18;;;;;;;-2.58;93.57;102947.97;5087977;28;20440;-69
2024/01/08 06:03:27;;;;;;;11.25;8.25;;;;;;;-2.63;93.82;102944.25;5070389;28;20066;-69
2024/01/08 06:05:54;;;;;;;8.35;4.60;;;;;;;-2.62;94.20;102945.13;5081494;28;20609;-74
2024/01/08 06:08:22;;;;;;;8.23;4.60;;;;;;;-2.65;94.33;102945.84;5071115;28;20113;-70
2024/01/08 06:10:49;;;;;;;9.30;2.78;;;;;;;-2.59;94.66;102943.63;5075234;28;20052;-71
2024/01/08 06:13:16;;;;;;;6.90;3.58;;;;;;;-2.61;94.88;102944.34;5069384;28;20049;-70
2024/01/08 06:15:44;;;;;;;10.77;6.05;;;;;;;-2.64;94.98;102942.47;5073191;28;20048;-70
2024/01/08 06:18:11;;;;;;;6.50;4.07;;;;;;;-2.60;95.30;102936.69;5076930;28;20042;-70
2024/01/08 06:20:38;;;;;;;7.22;4.30;;;;;;;-2.57;94.97;102947.19;5076039;28;20043;-71
2024/01/08 06:23:06;;;;;;;10.98;4.88;;;;;;;-2.56;94.95;102942.91;5076814;28;20048;-71
2024/01/08 06:25:33;;;;;;;10.85;8.77;;;;;;;-2.56;94.86;102936.03;5076885;28;20047;-70
2024/01/08 06:28:00;;;;;;;6.47;4.03;;;;;;;-2.61;95.04;102941.75;5085482;28;20482;-70
2024/01/08 06:30:27;;;;;;;7.25;4.05;;;;;;;-2.65;95.44;102940.69;5069199;28;20048;-70
2024/01/08 06:32:54;;;;;;;5.78;3.80;;;;;;;-2.62;95.50;102942.53;5087628;28;20114;-71
2024/01/08 06:35:22;;;;;;;12.25;4.55;;;;;;;-2.61;95.81;102947.81;5087284;28;20047;-70
2024/01/08 06:37:49;;;;;;;12.30;8.77;;;;;;;-2.59;95.85;102941.03;5081567;28;20156;-70
2024/01/08 06:40:17;;;;;;;10.75;4.90;;;;;;;-2.55;95.34;102939.53;5068726;28;20063;-70
2024/01/08 06:42:47;;;;;;;6.25;4.22;;;;;;;-2.55;95.46;102939.53;5085023;28;20036;-70
2024/01/08 06:45:28;;;;;;;10.93;5.80;;;;;;;-2.57;95.51;102948.88;5070129;28;20457;-70
2024/01/08 06:47:55;;;;;;;8.32;3.70;;;;;;;-2.53;95.57;102956.00;5072632;28;20055;-70
2024/01/08 06:50:23;;;;;;;8.13;3.97;;;;;;;-2.53;95.50;102949.16;5085247;28;20401;-70
2024/01/08 06:52:50;;;;;;;10.00;5.13;;;;;;;-2.50;95.47;102956.19;5070821;28;20043;-70
2024/01/08 06:55:17;;;;;;;8.50;5.00;;;;;;;-2.55;95.84;102957.63;5102358;28;20066;-72
2024/01/08 06:57:45;;;;;;;10.40;5.30;;;;;;;-2.52;96.19;102963.84;5083636;28;20046;-70
2024/01/08 07:00:12;;;;;;;9.27;4.53;;;;;;;-2.50;96.18;102959.66;5073650;28;20686;-72
2024/01/08 07:02:40;;;;;;;9.55;4.88;;;;;;;-2.47;96.04;102952.88;5072939;28;20469;-72
2024/01/08 07:05:07;;;;;;;9.68;4.60;;;;;;;-2.41;95.69;102950.66;5066818;28;20051;-70
2024/01/08 07:07:37;;;;;;;12.25;8.18;;;;;;;-2.35;94.93;102961.31;5068000;28;20048;-70
2024/01/08 07:10:05;;;;;;;6.07;3.60;;;;;;;-2.35;94.72;102961.31;5069996;28;20053;-70
2024/01/08 07:12:32;;;;;;;11.00;8.63;;;;;;;-2.32;94.61;102956.34;5067677;28;20044;-70
2024/01/08 07:14:59;;;;;;;11.35;8.02;;;;;;;-2.34;94.12;102956.25;5084260;28;20056;-70
2024/01/08 07:17:27;;;;;;;10.70;8.45;;;;;;;-2.37;94.30;102956.09;5080700;28;20067;-71
2024/01/08 07:19:54;;;;;;;12.75;8.73;;;;;;;-2.38;94.48;102958.56;5084407;28;20040;-71
2024/01/08 07:22:22;;;;;;;7.95;3.70;;;;;;;-2.39;94.61;102965.44;5087326;28;20047;-69
2024/01/08 07:24:49;;;;;;;6.28;4.53;;;;;;;-2.40;94.61;102962.78;5103857;28;20040;-71
2024/01/08 07:27:16;;;;;;;8.45;4.50;;;;;;;-2.38;94.71;102972.38;5073229;28;20055;-70
2024/01/08 07:29:43;;;;;;;6.97;3.65;;;;;;;-2.39;95.08;102975.78;5078441;28;20044;-71
2024/01/08 07:32:10;;;;;;;6.43;4.05;;;;;;;-2.34;94.85;102971.75;5068575;28;20163;-71
2024/01/08 07:34:38;;;;;;;10.90;7.88;;;;;;;-2.29;94.54;102981.47;5082518;28;20063;-71
2024/01/08 07:37:05;;;;;;;10.73;7.68;;;;;;;-2.24;94.28;102970.59;5067533;28;20139;-71
2024/01/08 07:39:32;;;;;;;6.60;3.78;;;;;;;-2.25;94.17;102967.94;5064646;28;20086;-71
2024/01/08 07:41:59;;;;;;;7.72;4.03;;;;;;;-2.28;94.31;102966.03;5078080;28;20195;-70
2024/01/08 07:44:26;;;;;;;9.23;7.45;;;;;;;-2.25;94.23;102968.81;5089807;28;20045;-71
2024/01/08 07:46:53;;;;;;;6.03;3.83;;;;;;;-2.24;94.15;102967.13;5066777;28;20538;-71
2024/01/08 07:49:20;;;;;;;9.77;7.13;;;;;;;-2.20;94.32;102979.41;5088196;28;20044;-71
2024/01/08 07:51:48;;;;;;;7.13;4.00;;;;;;;-2.20;93.97;102967.38;5086575;28;20129;-70
2024/01/08 07:54:15;;;;;;;11.63;7.75;;;;;;;-2.22;94.44;102973.25;5083920;28;20044;-71
2024/01/08 07:56:42;;;;;;;7.93;4.57;;;;;;;-2.24;94.56;102973.16;5073508;28;20060;-71
2024/01/08 07:59:25;;;;;;;8.82;4.13;;;;;;;-2.22;94.38;102989.66;5069040;28;20557;-70
2024/01/08 08:01:52;;;;;;;5.70;3.22;;;;;;;-2.26;94.64;102979.94;5068766;28;20044;-71
2024/01/08 08:04:20;;;;;;;5.85;3.00;;;;;;;-2.23;95.20;102976.63;5093199;28;20438;-71
2024/01/08 08:06:47;;;;;;;5.95;3.60;;;;;;;-2.25;95.42;102986.91;5087790;28;20047;-71
2024/01/08 08:09:15;;;;;;;6.05;2.72;;;;;;;-2.22;95.46;102993.91;5075020;28;20040;-71
2024/01/08 08:11:42;;;;;;;6.85;3.63;;;;;;;-2.24;95.61;102991.25;5067447;28;20129;-71
2024/01/08 08:14:09;;;;;;;7.63;3.72;;;;;;;-2.24;95.66;102988.69;5080173;28;20040;-70
2024/01/08 08:16:36;;;;;;;6.35;4.22;;;;;;;-2.22;95.74;102987.06;5085439;28;20060;-71
2024/01/08 08:19:03;;;;;;;9.27;6.93;;;;;;;-2.22;96.05;102994.84;5082274;28;20047;-71
2024/01/08 08:21:32;;;;;;;9.40;4.13;;;;;;;-2.20;95.89;102992.31;5083884;28;20101;-70
2024/01/08 08:24:03;;;;;;;8.57;6.82;;;;;;;-2.18;96.09;102993.31;5083282;28;20040;-71
2024/01/08 08:26:30;;;;;;;10.63;7.10;;;;;;;-2.17;96.21;102986.44;5085891;28;20071;-70
2024/01/08 08:29:00;;;;;;;6.55;4.10;;;;;;;-2.21;96.70;102985.38;5086551;28;20047;-70
2024/01/08 08:31:27;;;;;;;7.25;3.40;;;;;;;-2.24;96.90;102995.56;5090406;28;20059;-70
2024/01/08 08:33:54;;;;;;;6.25;3.65;;;;;;;-2.24;97.26;102999.00;5107054;28;20048;-71
2024/01/08 08:36:21;;;;;;;5.88;3.70;;;;;;;-2.18;97.00;103013.97;5084657;28;20139;-70
2024/01/08 08:38:49;;;;;;;5.93;3.83;;;;;;;-2.13;96.33;103001.31;5086188;28;20032;-70
2024/01/08 08:41:19;;;;;;;6.10;3.58;;;;;;;-2.14;96.61;103003.03;5089678;28;20168;-69
2024/01/08 08:43:46;;;;;;;6.63;3.47;;;;;;;-2.16;97.07;103016.63;5085571;28;20140;-70
2024/01/08 08:46:15;;;;;;;4.97;3.53;;;;;;;-2.17;97.67;103014.84;5077704;28;20040;-71
2024/01/08 08:48:42;;;;;;;6.88;4.10;;;;;;;-2.17;98.13;103013.19;5085652;28;20114;-68
2024/01/08 08:51:10;;;;;;;5.57;3.20;;;;;;;-2.15;98.80;103015.84;5065696;28;20476;-72
2024/01/08 08:53:38;;;;;;;5.20;2.83;;;;;;;-2.23;99.55;103021.47;5070406;28;20566;-71
2024/01/08 08:56:05;;;;;;;9.55;4.82;;;;;;;-2.20;99.96;103019.06;5103277;28;20070;-70
2024/01/08 08:58:32;;;;;;;6.75;4.00;;;;;;;-2.22;100.00;103022.34;5075852;28;20144;-70
2024/01/08 09:00:59;;;;;;;5.63;3.78;;;;;;;-2.26;100.00;103023.88;5087364;28;20131;-70
2024/01/08 09:03:29;;;;;;;5.35;3.42;;;;;;;-2.24;100.00;103024.84;5087070;28;20055;-70
2024/01/08 09:05:56;;;;;;;9.85;7.78;;;;;;;-2.27;100.00;103026.38;5086638;28;20777;-70
2024/01/08 09:08:27;;;;;;;8.30;4.68;;;;;;;-2.25;100.00;103025.66;5073744;28;20044;-70
2024/01/08 09:10:54;;;;;;;10.35;7.68;;;;;;;-2.17;100.00;103028.69;5084204;28;20044;-70
2024/01/08 09:13:21;;;;;;;7.70;4.57;;;;;;;-2.12;100.00;103028.94;5069985;28;20059;-70
2024/01/08 09:15:48;;;;;;;4.75;3.35;;;;;;;-2.14;100.00;103027.97;5088072;28;20045;-70
2024/01/08 09:18:16;;;;;;;6.07;3.20;;;;;;;-2.18;100.00;103026.91;5066414;28;20048;-70
2024/01/08 09:20:43;;;;;;;6.03;3.65;;;;;;;-2.12;100.00;103024.66;5082209;28;20048;-69
2024/01/08 09:23:11;;;;;;;8.30;3.78;;;;;;;-2.07;100.00;103027.50;5066021;28;20063;-70
2024/01/08 09:25:38;;;;;;;5.38;3.47;;;;;;;-2.05;100.00;103039.75;5064741;28;20092;-70
2024/01/08 09:28:05;;;;;;;4.82;3.35;;;;;;;-1.95;99.62;103035.97;5078783;28;20044;-70
2024/01/08 09:30:32;;;;;;;6.57;4.70;;;;;;;-1.94;98.56;103031.69;5075864;28;20036;-70
2024/01/08 09:32:59;;;;;;;5.85;3.58;;;;;;;-1.95;97.73;103041.13;5067219;28;20232;-70
2024/01/08 09:35:27;;;;;;;6.88;5.90;;;;;;;-1.91;97.16;103053.44;5065596;28;20040;-70
2024/01/08 09:37:55;;;;;;;4.68;3.30;;;;;;;-1.91;96.30;103043.09;5074561;28;20054;-70
2024/01/08 09:40:22;;;;;;;5.22;3.05;;;;;;;-1.87;96.09;103047.63;5085437;28;20040;-70
2024/01/08 09:42:55;;;;;;;7.35;5.78;;;;;;;-1.84;95.76;103049.50;5083605;28;20113;-70
2024/01/08 09:45:26;;;;;;;5.07;3.65;;;;;;;-1.87;95.68;103050.22;5102348;28;20047;-70
2024/01/08 09:47:54;;;;;;;8.52;3.80;;;;;;;-1.90;95.62;103057.81;5099136;28;20048;-70
2024/01/08 09:50:24;;;;;;;8.18;6.28;;;;;;;-1.86;95.83;103051.13;5081612;28;20295;-70
2024/01/08 09:52:53;;;;;;;6.65;3.72;;;;;;;-1.82;94.58;103047.88;5072030;28;20062;-69
2024/01/08 09:55:21;;;;;;;13.15;5.60;;;;;;;-1.92;94.56;103043.91;5083501;28;20588;-70
2024/01/08 09:57:48;;;;;;;4.88;3.08;;;;;;;-1.93;94.94;103043.78;5078825;28;20600;-69
2024/01/08 10:00:18;;;;;;;5.85;3.40;;;;;;;-1.85;94.44;103045.16;5071423;28;20043;-71
2024/01/08 10:02:56;;;;;;;7.10;5.40;;;;;;;-1.70;93.24;103045.13;5075872;28;20028;-71
2024/01/08 10:05:33;;;;;;;4.53;2.47;;;;;;;-1.54;91.10;103043.34;5101938;28;20699;-71
2024/01/08 10:08:00;;;;;;;3.30;2.40;;;;;;;-1.49;89.44;103041.94;5086261;28;20036;-71
2024/01/08 10:10:31;;;;;;;6.28;5.00;;;;;;;-1.46;88.16;103037.81;5078854;28;20156;-71
2024/01/08 10:13:03;;;;;;;6.97;5.15;;;;;;;-1.42;87.49;103041.44;5048189;28;20053;-70
2024/01/08 10:15:31;;;;;;;4.95;2.97;;;;;;;-1.39;86.55;103041.63;5066706;28;20052;-71
2024/01/08 10:18:01;;;;;;;7.53;4.97;;;;;;;-1.38;85.54;103040.81;5074652;28;20085;-71
2024/01/08 10:20:30;;;;;;;4.57;2.97;;;;;;;-1.38;84.91;103047.69;5080956;28;20036;-69
2024/01/08 10:23:09;;;;;;;5.00;2.47;;;;;;;-1.45;84.45;103042.19;5065385;28;20135;-70
2024/01/08 10:25:38;;;;;;;6.78;4.60;;;;;;;-1.43;84.98;103037.97;5065377;28;20064;-69
2024/01/08 10:28:09;;;;;;;5.10;2.47;;;;;;;-1.43;85.61;103040.56;5064416;28;20155;-70
2024/01/08 10:30:36;;;;;;;5.72;4.78;;;;;;;-1.28;84.96;103034.44;5080609;28;20032;-69
2024/01/08 10:33:08;;;;;;;3.95;2.92;;;;;;;-1.22;84.10;103031.28;5067815;28;20531;-69
2024/01/08 10:35:41;;;;;;;4.22;1.88;;;;;;;-1.17;84.18;103035.03;5079061;28;20119;-69
2024/01/08 10:38:09;;;;;;;3.42;2.33;;;;;;;-1.10;83.85;103035.41;5084137;28;20048;-69
2024/01/08 10:40:37;;;;;;;5.80;4.13;;;;;;;-0.94;83.66;103033.63;5086468;28;20149;-70
2024/01/08 10:43:05;;;;;;;5.53;4.65;;;;;;;-0.88;83.75;103028.78;5089342;28;20047;-69
2024/01/08 10:45:36;;;;;;;3.53;2.45;;;;;;;-0.92;84.06;103024.25;5086028;28;20059;-70
2024/01/08 10:48:16;;;;;;;5.03;3.35;;;;;;;-0.96;83.25;103025.78;5081824;28;20043;-70
2024/01/08 10:50:46;;;;;;;5.00;2.97;;;;;;;-1.00;83.15;103017.75;5081846;28;20044;-70
2024/01/08 10:53:47;;;;;;;2.80;1.88;;;;;;;-1.01;82.20;103011.72;5087200;28;20047;-70
2024/01/08 10:56:20;;;;;;;6.07;2.78;;;;;;;-1.09;82.56;103015.59;5077919;28;20045;-70
2024/01/08 10:59:13;;;;;;;5.82;4.63;;;;;;;-1.03;81.51;103015.91;5083595;28;20044;-71
2024/01/08 11:01:41;;;;;;;5.70;2.55;;;;;;;-1.00;80.06;103013.50;5095979;28;20129;-70
2024/01/08 11:04:09;;;;;;;3.97;2.60;;;;;;;-0.95;77.06;103016.31;5083361;28;20051;-70
2024/01/08 11:06:40;;;;;;;4.32;2.55;;;;;;;-0.89;77.67;103011.44;5084476;28;20525;-70
2024/01/08 11:09:26;;;;;;;4.47;2.60;;;;;;;-0.73;78.93;103013.13;5073472;28;20040;-70
2024/01/08 11:11:55;;;;;;;5.60;2.50;;;;;;;-0.48;78.58;103009.19;5077827;28;20053;-69
2024/01/08 11:14:24;;;;;;;6.00;4.40;;;;;;;-0.17;76.75;103008.13;5075043;28;20047;-69
2024/01/08 11:16:52;;;;;;;4.50;2.53;;;;;;;0.00;77.11;103008.97;5091551;28;20103;-69
2024/01/08 11:19:20;;;;;;;3.60;2.25;;;;;;;0.18;76.84;103001.13;5075161;28;20037;-69
2024/01/08 11:21:57;;;;;;;5.93;4.05;;;;;;;0.32;74.47;103000.91;5073999;28;20392;-69
2024/01/08 11:24:25;;;;;;;2.58;1.98;;;;;;;0.25;74.75;102999.72;5076329;28;20106;-70
2024/01/08 11:26:52;;;;;;;7.47;4.40;;;;;;;0.29;74.48;103002.53;5079198;28;20407;-70
2024/01/08 11:29:23;;;;;;;4.72;2.50;;;;;;;0.32;73.42;102996.59;5065299;28;20583;-69